Time;durP1;ratioP1;P1;durP2;ratioP2;P2;SDS_P1;SDS_P2;PMS_P1;PMS_P2;Temp;Humidity;BMP_temperature;BMP_pressure;BME280_temperature;BME280_humidity;BME280_pressure;Samples;Min_cycle;Max_cycle;Signal;HPM_P1;HPM_P2
2021/12/28 00:01:06;;;;;;;10.30;1.65;;;8.10;99.90;;;;;;5002349;28;20413;-52
2021/12/28 00:03:32;;;;;;;7.20;1.40;;;8.00;99.90;;;;;;5012023;28;20867;-52
2021/12/28 00:06:00;;;;;;;7.75;2.20;;;8.00;99.90;;;;;;5011439;28;20389;-52
2021/12/28 00:08:26;;;;;;;5.73;1.50;;;8.00;99.90;;;;;;5011429;28;20396;-52
2021/12/28 00:10:52;;;;;;;6.40;1.73;;;8.00;99.90;;;;;;5012229;28;20384;-52
2021/12/28 00:13:18;;;;;;;9.88;1.80;;;8.10;99.90;;;;;;5011662;28;20523;-52
2021/12/28 00:16:02;;;;;;;7.22;1.70;;;8.10;99.90;;;;;;5011882;28;20495;-53
2021/12/28 00:18:28;;;;;;;8.98;1.45;;;8.10;99.90;;;;;;5011803;28;20426;-52
2021/12/28 00:20:58;;;;;;;9.95;2.25;;;8.10;99.90;;;;;;5011602;28;20392;-52
2021/12/28 00:23:30;;;;;;;6.90;1.42;;;8.00;99.90;;;;;;5011725;28;20416;-52
2021/12/28 00:25:57;;;;;;;8.13;1.67;;;8.00;99.90;;;;;;5005100;28;20394;-53
2021/12/28 00:28:23;;;;;;;10.43;1.50;;;8.00;99.90;;;;;;4992271;28;20387;-52
2021/12/28 00:30:49;;;;;;;9.90;1.80;;;7.90;99.90;;;;;;4972882;28;20400;-52
2021/12/28 00:33:16;;;;;;;8.45;2.08;;;7.80;99.90;;;;;;4971862;28;20739;-52
2021/12/28 00:35:42;;;;;;;7.60;1.77;;;7.90;99.90;;;;;;4972521;28;20404;-53
2021/12/28 00:38:10;;;;;;;11.37;2.20;;;7.90;99.90;;;;;;4971583;28;20463;-53
2021/12/28 00:40:36;;;;;;;9.80;1.97;;;7.90;99.90;;;;;;4972473;28;20389;-53
2021/12/28 00:43:03;;;;;;;8.02;1.88;;;7.90;99.90;;;;;;4982761;28;20472;-53
2021/12/28 00:45:30;;;;;;;9.65;1.83;;;7.90;99.90;;;;;;4990946;28;20391;-53
2021/12/28 00:47:55;;;;;;;10.55;1.98;;;7.80;99.90;;;;;;4990628;28;20406;-53
2021/12/28 00:50:23;;;;;;;12.23;2.13;;;8.00;99.90;;;;;;4991546;28;20382;-53
2021/12/28 00:52:49;;;;;;;9.60;2.17;;;8.00;99.90;;;;;;4991764;28;20391;-53
2021/12/28 00:55:17;;;;;;;6.35;1.70;;;8.00;99.90;;;;;;4989326;28;21086;-53
2021/12/28 00:57:43;;;;;;;10.27;2.20;;;8.00;99.90;;;;;;4991247;28;20423;-53
2021/12/28 01:00:13;;;;;;;13.77;2.00;;;8.10;99.90;;;;;;4990551;28;20860;-53
2021/12/28 01:02:39;;;;;;;9.35;2.08;;;8.10;99.90;;;;;;4991541;28;20402;-53
2021/12/28 01:05:05;;;;;;;8.90;1.90;;;8.10;99.90;;;;;;4990667;28;20456;-53
2021/12/28 01:07:31;;;;;;;12.32;2.33;;;8.10;99.90;;;;;;4991334;28;20393;-53
2021/12/28 01:09:57;;;;;;;11.05;1.60;;;8.40;99.90;;;;;;4990455;28;20938;-52
2021/12/28 01:12:24;;;;;;;11.40;2.72;;;8.10;99.90;;;;;;4990826;28;20399;-52
2021/12/28 01:14:50;;;;;;;12.02;2.08;;;8.10;99.90;;;;;;4990856;28;20839;-52
2021/12/28 01:17:16;;;;;;;10.40;1.90;;;8.20;99.90;;;;;;4989037;28;20403;-53
2021/12/28 01:19:42;;;;;;;9.20;1.70;;;8.20;99.90;;;;;;4990551;28;20432;-52
2021/12/28 01:22:08;;;;;;;11.70;1.90;;;8.10;99.90;;;;;;4989266;28;20430;-52
2021/12/28 01:24:34;;;;;;;10.07;1.52;;;8.10;99.90;;;;;;4990880;28;20473;-52
2021/12/28 01:27:00;;;;;;;8.00;1.60;;;8.10;99.90;;;;;;4990038;28;20774;-52
2021/12/28 01:29:27;;;;;;;9.52;1.60;;;8.00;99.90;;;;;;4999174;28;20495;-52
2021/12/28 01:31:53;;;;;;;8.23;1.70;;;8.10;99.90;;;;;;5010633;28;20476;-52
2021/12/28 01:34:19;;;;;;;10.98;1.63;;;8.10;99.90;;;;;;5009727;28;20735;-52
2021/12/28 01:36:45;;;;;;;15.00;1.98;;;8.10;99.90;;;;;;5010529;28;20511;-52
2021/12/28 01:39:11;;;;;;;8.80;1.67;;;8.10;99.90;;;;;;5009709;28;20739;-52
2021/12/28 01:41:37;;;;;;;14.60;2.70;;;8.00;99.90;;;;;;5009945;28;20388;-53
2021/12/28 01:44:07;;;;;;;10.13;2.10;;;8.20;99.90;;;;;;5009545;28;20439;-52
2021/12/28 01:46:35;;;;;;;8.70;1.35;;;8.30;99.90;;;;;;5010687;28;20380;-52
2021/12/28 01:49:02;;;;;;;9.15;2.03;;;8.40;99.90;;;;;;5009679;28;20408;-52
2021/12/28 01:51:28;;;;;;;7.97;1.58;;;8.40;99.90;;;;;;5010024;28;20797;-52
2021/12/28 01:53:56;;;;;;;9.52;1.90;;;8.50;99.90;;;;;;5010139;28;20492;-52
2021/12/28 01:56:29;;;;;;;9.05;1.67;;;8.50;99.90;;;;;;5009634;28;20554;-52
2021/12/28 01:58:55;;;;;;;8.93;1.90;;;8.40;99.90;;;;;;5009956;28;20420;-52
2021/12/28 02:01:22;;;;;;;11.60;2.30;;;8.30;99.90;;;;;;5009915;28;20385;-52
2021/12/28 02:03:48;;;;;;;8.23;1.50;;;8.30;99.90;;;;;;5009064;28;20420;-53
2021/12/28 02:06:16;;;;;;;9.73;1.80;;;8.20;99.90;;;;;;5009293;28;20592;-52
2021/12/28 02:08:47;;;;;;;7.40;1.70;;;8.10;99.90;;;;;;5010037;28;20389;-52
2021/12/28 02:11:13;;;;;;;7.07;1.52;;;8.20;99.90;;;;;;5008993;28;20838;-52
2021/12/28 02:13:39;;;;;;;10.82;1.90;;;8.20;99.90;;;;;;5009956;28;20480;-52
2021/12/28 02:16:06;;;;;;;8.82;2.17;;;8.30;99.90;;;;;;5007761;28;20405;-52
2021/12/28 02:18:33;;;;;;;7.60;1.88;;;8.20;99.90;;;;;;5009732;28;20388;-52
2021/12/28 02:21:01;;;;;;;9.60;1.60;;;8.20;99.90;;;;;;5009059;28;20384;-52
2021/12/28 02:23:27;;;;;;;6.93;2.17;;;8.20;99.90;;;;;;5009535;28;21020;-52
2021/12/28 02:25:53;;;;;;;10.05;1.90;;;8.20;99.90;;;;;;5010022;28;20464;-52
2021/12/28 02:28:19;;;;;;;10.30;1.80;;;8.20;99.90;;;;;;5009092;28;20388;-52
2021/12/28 02:30:53;;;;;;;9.90;2.03;;;8.20;99.90;;;;;;5009729;28;20510;-53
2021/12/28 02:33:21;;;;;;;6.45;1.60;;;8.20;99.90;;;;;;5012249;28;20408;-53
2021/12/28 02:35:47;;;;;;;7.32;1.45;;;8.10;99.90;;;;;;5013663;28;20572;-52
2021/12/28 02:38:13;;;;;;;10.98;1.75;;;8.10;99.90;;;;;;5012720;28;20484;-52
2021/12/28 02:40:41;;;;;;;10.32;1.90;;;8.00;99.90;;;;;;5013964;28;20391;-52
2021/12/28 02:43:08;;;;;;;9.05;1.90;;;8.00;99.90;;;;;;5012591;28;20397;-52
2021/12/28 02:45:38;;;;;;;8.45;2.03;;;8.00;99.90;;;;;;5013249;28;20758;-52
2021/12/28 02:48:05;;;;;;;8.45;1.75;;;8.00;99.90;;;;;;5012696;28;20396;-52
2021/12/28 02:50:36;;;;;;;7.25;1.60;;;8.00;99.90;;;;;;5013250;28;20412;-52
2021/12/28 02:53:02;;;;;;;10.93;1.57;;;7.90;99.90;;;;;;5011662;28;20888;-52
2021/12/28 02:55:31;;;;;;;8.93;1.70;;;7.90;99.90;;;;;;5010523;28;20948;-52
2021/12/28 02:58:08;;;;;;;9.82;1.73;;;7.80;99.90;;;;;;5011842;28;20454;-52
2021/12/28 03:00:45;;;;;;;9.63;1.52;;;7.80;99.90;;;;;;5012217;28;20407;-52
2021/12/28 03:03:18;;;;;;;8.40;1.60;;;7.80;99.90;;;;;;5012480;28;20407;-52
2021/12/28 03:05:47;;;;;;;10.07;1.60;;;7.80;99.90;;;;;;5011855;28;20819;-52
2021/12/28 03:08:15;;;;;;;10.18;1.60;;;7.90;99.90;;;;;;5012431;28;20393;-52
2021/12/28 03:10:48;;;;;;;9.13;2.13;;;7.80;99.90;;;;;;5012882;28;20385;-52
2021/12/28 03:13:16;;;;;;;7.38;1.75;;;7.90;99.90;;;;;;5012059;28;20793;-52
2021/12/28 03:15:42;;;;;;;8.70;1.85;;;8.00;99.90;;;;;;5012661;28;20400;-52
2021/12/28 03:18:08;;;;;;;9.25;1.70;;;8.00;99.90;;;;;;5011994;28;20404;-52
2021/12/28 03:20:34;;;;;;;9.77;2.28;;;8.00;99.90;;;;;;5012371;28;20391;-52
2021/12/28 03:23:00;;;;;;;10.02;2.42;;;8.20;99.90;;;;;;4994112;28;20476;-52
2021/12/28 03:25:26;;;;;;;9.55;2.47;;;8.20;99.90;;;;;;5008585;28;20392;-52
2021/12/28 03:27:51;;;;;;;10.47;1.77;;;8.30;99.90;;;;;;5006752;28;20864;-52
2021/12/28 03:30:17;;;;;;;10.52;2.00;;;8.40;99.90;;;;;;4991872;28;20406;-52
2021/12/28 03:32:44;;;;;;;10.07;2.10;;;8.30;99.90;;;;;;4993066;28;20473;-52
2021/12/28 03:35:11;;;;;;;8.98;1.70;;;8.20;99.90;;;;;;4992096;28;20413;-52
2021/12/28 03:37:37;;;;;;;8.88;1.90;;;8.30;99.90;;;;;;4992987;28;20426;-52
2021/12/28 03:40:06;;;;;;;8.23;1.70;;;8.40;99.90;;;;;;4990618;28;20414;-52
2021/12/28 03:42:32;;;;;;;9.15;1.65;;;8.40;99.90;;;;;;5003969;28;20389;-52
2021/12/28 03:44:58;;;;;;;8.00;1.70;;;8.40;99.90;;;;;;5010896;28;20385;-52
2021/12/28 03:47:24;;;;;;;10.25;1.70;;;8.40;99.90;;;;;;5012301;28;20434;-52
2021/12/28 03:49:51;;;;;;;9.73;1.57;;;8.30;99.90;;;;;;5011644;28;20396;-52
2021/12/28 03:52:17;;;;;;;8.75;1.77;;;8.40;99.90;;;;;;5000025;28;20383;-53
2021/12/28 03:54:42;;;;;;;15.93;2.50;;;8.50;99.90;;;;;;4992664;28;20383;-52
2021/12/28 03:57:08;;;;;;;11.98;1.83;;;8.50;99.90;;;;;;4991970;28;20450;-52
2021/12/28 03:59:34;;;;;;;8.18;1.73;;;8.40;99.90;;;;;;4992492;28;20841;-53
2021/12/28 04:01:59;;;;;;;9.33;1.60;;;9.20;99.90;;;;;;4992166;28;20402;-52
2021/12/28 04:04:25;;;;;;;8.88;2.00;;;8.40;99.90;;;;;;4992172;28;20391;-53
2021/12/28 04:06:51;;;;;;;6.80;1.50;;;8.40;99.90;;;;;;4992551;28;20887;-53
2021/12/28 04:09:33;;;;;;;8.18;1.65;;;8.40;99.90;;;;;;4991712;28;20939;-52
2021/12/28 04:11:59;;;;;;;8.20;2.30;;;8.30;99.90;;;;;;4991885;28;20486;-53
2021/12/28 04:14:25;;;;;;;8.23;1.90;;;8.40;99.90;;;;;;4992186;28;20466;-52
2021/12/28 04:16:51;;;;;;;9.60;1.70;;;8.40;99.90;;;;;;4992116;28;20414;-53
2021/12/28 04:19:16;;;;;;;10.97;2.03;;;8.30;99.90;;;;;;4991641;28;20395;-53
2021/12/28 04:21:42;;;;;;;9.63;1.92;;;8.30;99.90;;;;;;4992145;28;20383;-52
2021/12/28 04:24:07;;;;;;;5.70;1.30;;;8.40;99.90;;;;;;4991618;28;20876;-52
2021/12/28 04:26:33;;;;;;;8.07;1.77;;;8.40;99.90;;;;;;4992279;28;20418;-52
2021/12/28 04:28:59;;;;;;;9.77;1.87;;;8.40;99.90;;;;;;4991105;28;20513;-53
2021/12/28 04:31:26;;;;;;;8.23;1.60;;;8.50;99.90;;;;;;5010646;28;20400;-52
2021/12/28 04:33:53;;;;;;;8.13;1.80;;;8.50;99.90;;;;;;5011274;28;20380;-53
2021/12/28 04:36:20;;;;;;;6.97;1.50;;;8.60;99.90;;;;;;5010635;28;20441;-52
2021/12/28 04:38:46;;;;;;;6.80;1.60;;;8.60;99.90;;;;;;5011209;28;20393;-52
2021/12/28 04:41:12;;;;;;;11.60;1.92;;;8.60;99.90;;;;;;5010389;28;20403;-53
2021/12/28 04:43:38;;;;;;;9.13;1.90;;;8.60;99.90;;;;;;5011207;28;20393;-53
2021/12/28 04:46:05;;;;;;;9.75;1.30;;;8.60;99.90;;;;;;5010190;28;20392;-52
2021/12/28 04:48:32;;;;;;;8.93;1.70;;;8.70;99.90;;;;;;5011040;28;20403;-53
2021/12/28 04:50:59;;;;;;;6.43;1.45;;;8.70;99.90;;;;;;5010644;28;20821;-52
2021/12/28 04:53:25;;;;;;;10.45;1.80;;;8.70;99.90;;;;;;5010462;28;20393;-53
2021/12/28 04:55:51;;;;;;;7.67;1.70;;;8.60;99.90;;;;;;5010868;28;20401;-53
2021/12/28 04:58:18;;;;;;;9.13;2.05;;;8.60;99.90;;;;;;5009082;28;20419;-53
2021/12/28 05:00:46;;;;;;;8.82;2.45;;;8.60;99.90;;;;;;5010624;28;20393;-52
2021/12/28 05:03:13;;;;;;;7.00;1.80;;;8.60;99.90;;;;;;5010460;28;20415;-52
2021/12/28 05:05:44;;;;;;;8.20;2.10;;;8.60;99.90;;;;;;5010995;28;20385;-52
2021/12/28 05:08:13;;;;;;;8.30;1.80;;;8.50;99.90;;;;;;5008428;28;20409;-53
2021/12/28 05:10:47;;;;;;;8.50;1.90;;;8.50;99.90;;;;;;5009337;28;20400;-52
2021/12/28 05:13:19;;;;;;;8.60;1.70;;;8.50;99.90;;;;;;5008447;28;20807;-52
2021/12/28 05:15:53;;;;;;;8.35;1.95;;;8.40;99.90;;;;;;5009736;28;20432;-52
2021/12/28 05:18:20;;;;;;;6.97;1.60;;;8.30;99.90;;;;;;5009809;28;20409;-52
2021/12/28 05:20:46;;;;;;;11.48;2.17;;;8.30;99.90;;;;;;5010724;28;20484;-52
2021/12/28 05:23:13;;;;;;;11.70;2.20;;;8.40;99.90;;;;;;5009948;28;20412;-52
2021/12/28 05:25:38;;;;;;;9.70;1.80;;;8.40;99.90;;;;;;5010488;28;20389;-52
2021/12/28 05:28:05;;;;;;;8.75;1.80;;;8.30;99.90;;;;;;5009505;28;21009;-52
2021/12/28 05:30:32;;;;;;;7.15;1.50;;;8.30;99.90;;;;;;5009775;28;20412;-52
2021/12/28 05:32:58;;;;;;;8.13;2.05;;;8.20;99.90;;;;;;4994372;28;20421;-52
2021/12/28 05:35:24;;;;;;;6.20;1.60;;;8.20;99.90;;;;;;4990241;28;20403;-52
2021/12/28 05:37:50;;;;;;;8.88;2.13;;;8.20;99.90;;;;;;4991181;28;20394;-52
2021/12/28 05:40:16;;;;;;;10.88;2.13;;;8.10;99.90;;;;;;5007012;28;20392;-52
2021/12/28 05:42:42;;;;;;;7.85;1.80;;;8.10;99.90;;;;;;5010349;28;20392;-52
2021/12/28 05:45:08;;;;;;;10.38;2.20;;;8.10;99.90;;;;;;5009776;28;20388;-53
2021/12/28 05:47:35;;;;;;;7.70;1.83;;;8.10;99.90;;;;;;5009964;28;20989;-52
2021/12/28 05:50:01;;;;;;;11.32;2.20;;;8.20;99.90;;;;;;5009899;28;20376;-53
2021/12/28 05:52:27;;;;;;;7.38;1.50;;;8.20;99.90;;;;;;4997594;28;20935;-53
2021/12/28 05:55:07;;;;;;;6.20;1.70;;;8.30;99.90;;;;;;4990465;28;20475;-53
2021/12/28 05:57:33;;;;;;;8.50;2.25;;;8.30;99.90;;;;;;4990223;28;20473;-52
2021/12/28 05:59:59;;;;;;;7.63;1.80;;;8.40;99.90;;;;;;4990165;28;20402;-53
2021/12/28 06:02:24;;;;;;;6.70;1.77;;;8.50;99.90;;;;;;4990080;28;20394;-53
2021/12/28 06:04:50;;;;;;;10.25;2.20;;;8.50;99.90;;;;;;4990453;28;20718;-52
2021/12/28 06:07:16;;;;;;;10.60;2.80;;;8.50;99.90;;;;;;4989188;28;20382;-53
2021/12/28 06:09:41;;;;;;;8.98;2.20;;;8.50;99.90;;;;;;4991945;28;20778;-53
2021/12/28 06:12:07;;;;;;;8.13;2.40;;;8.60;99.90;;;;;;5007983;28;20493;-53
2021/12/28 06:14:33;;;;;;;7.88;2.15;;;8.50;99.90;;;;;;5010095;28;20439;-53
2021/12/28 06:16:59;;;;;;;8.88;2.05;;;8.50;99.90;;;;;;5009631;28;20404;-52
2021/12/28 06:19:25;;;;;;;7.63;2.15;;;8.50;99.90;;;;;;5009326;28;20400;-53
2021/12/28 06:21:50;;;;;;;9.90;2.13;;;8.50;99.90;;;;;;5009861;28;20380;-53
2021/12/28 06:24:16;;;;;;;10.73;2.43;;;8.50;99.90;;;;;;5008574;28;20388;-53
2021/12/28 06:26:42;;;;;;;7.43;2.80;;;8.50;99.90;;;;;;5009446;28;20467;-53
2021/12/28 06:29:18;;;;;;;7.97;2.17;;;8.50;99.90;;;;;;5008418;28;20439;-53
2021/12/28 06:31:44;;;;;;;8.20;2.50;;;8.50;99.90;;;;;;5009689;28;20438;-53
2021/12/28 06:34:09;;;;;;;8.00;2.20;;;8.40;99.90;;;;;;5008835;28;20469;-53
2021/12/28 06:36:35;;;;;;;7.60;1.87;;;8.40;99.90;;;;;;5009716;28;20894;-53
2021/12/28 06:39:02;;;;;;;7.93;1.90;;;8.20;99.90;;;;;;5009009;28;20396;-53
2021/12/28 06:41:30;;;;;;;6.85;2.20;;;8.20;99.90;;;;;;5009074;28;20833;-53
2021/12/28 06:43:56;;;;;;;9.15;2.45;;;8.30;99.90;;;;;;5009596;28;20388;-53
2021/12/28 06:46:22;;;;;;;8.25;2.00;;;8.30;99.90;;;;;;5008656;28;20393;-53
2021/12/28 06:48:48;;;;;;;7.30;1.52;;;8.30;99.90;;;;;;5009596;28;20401;-53
2021/12/28 06:51:14;;;;;;;5.73;1.50;;;8.30;99.90;;;;;;5006395;28;20894;-52
2021/12/28 06:53:54;;;;;;;6.15;1.35;;;8.40;99.90;;;;;;5009056;28;20392;-52
2021/12/28 06:56:23;;;;;;;6.20;1.30;;;9.10;99.90;;;;;;5008551;28;20548;-53
2021/12/28 06:58:57;;;;;;;4.72;1.30;;;8.50;99.90;;;;;;5008879;28;20400;-52
2021/12/28 07:01:26;;;;;;;7.00;1.90;;;8.50;99.90;;;;;;5008538;28;20391;-53
2021/12/28 07:03:52;;;;;;;4.40;1.10;;;8.50;99.90;;;;;;5009594;28;20507;-52
2021/12/28 07:06:18;;;;;;;3.80;0.80;;;8.50;99.90;;;;;;5012469;28;20428;-53
2021/12/28 07:08:44;;;;;;;6.20;1.10;;;8.60;99.90;;;;;;5006276;28;20392;-53
2021/12/28 07:11:10;;;;;;;4.88;1.00;;;8.60;99.90;;;;;;5009036;28;20407;-53
2021/12/28 07:13:36;;;;;;;4.88;0.93;;;8.70;99.90;;;;;;5012475;28;20398;-52
2021/12/28 07:16:02;;;;;;;5.97;0.93;;;8.70;99.90;;;;;;5017832;28;20408;-52
2021/12/28 07:18:28;;;;;;;4.00;1.03;;;8.70;99.90;;;;;;5002023;28;20417;-53
2021/12/28 07:20:53;;;;;;;4.45;0.90;;;8.70;99.90;;;;;;5011480;28;20465;-52
2021/12/28 07:23:19;;;;;;;5.20;1.10;;;8.70;99.90;;;;;;5021379;28;20478;-53
2021/12/28 07:25:46;;;;;;;5.07;0.90;;;8.60;99.90;;;;;;5011081;28;20928;-53
2021/12/28 07:28:12;;;;;;;4.40;0.80;;;8.70;99.90;;;;;;5011150;28;20857;-52
2021/12/28 07:30:38;;;;;;;3.50;0.70;;;8.80;99.90;;;;;;5008713;28;20412;-53
2021/12/28 07:33:04;;;;;;;3.33;0.80;;;8.80;99.90;;;;;;5011111;28;20447;-52
2021/12/28 07:35:30;;;;;;;3.70;0.73;;;8.80;99.90;;;;;;5011656;28;20862;-53
2021/12/28 07:37:55;;;;;;;4.10;0.80;;;8.90;99.90;;;;;;5011786;28;20426;-53
2021/12/28 07:40:22;;;;;;;4.00;0.90;;;8.90;99.90;;;;;;5021283;28;20413;-53
2021/12/28 07:42:48;;;;;;;3.60;0.73;;;8.90;99.90;;;;;;5010716;28;20388;-52
2021/12/28 07:45:14;;;;;;;5.13;0.90;;;8.90;99.90;;;;;;5010227;28;20407;-52
2021/12/28 07:47:42;;;;;;;3.63;0.75;;;9.00;99.90;;;;;;5011444;28;20389;-53
2021/12/28 07:50:10;;;;;;;4.50;0.90;;;9.10;99.90;;;;;;5007462;28;20890;-52
2021/12/28 07:52:36;;;;;;;3.50;0.80;;;9.10;99.90;;;;;;5011152;28;20812;-52
2021/12/28 07:55:04;;;;;;;4.10;0.80;;;9.20;99.90;;;;;;5011417;28;20401;-53
2021/12/28 07:57:30;;;;;;;3.30;0.60;;;9.20;99.90;;;;;;5009232;28;20424;-53
2021/12/28 07:59:56;;;;;;;3.40;0.63;;;9.20;99.90;;;;;;5011607;28;20404;-53
2021/12/28 08:02:22;;;;;;;3.50;0.80;;;9.30;99.90;;;;;;5010858;28;20385;-53
2021/12/28 08:04:48;;;;;;;3.30;0.63;;;9.30;99.90;;;;;;5011419;28;20416;-53
2021/12/28 08:07:13;;;;;;;3.90;0.80;;;9.40;99.90;;;;;;5010672;28;20871;-53
2021/12/28 08:09:39;;;;;;;4.20;0.70;;;9.40;99.90;;;;;;5011621;28;20423;-52
2021/12/28 08:12:05;;;;;;;4.13;0.60;;;9.40;99.90;;;;;;5010411;28;20769;-53
2021/12/28 08:14:31;;;;;;;3.75;0.75;;;9.40;99.90;;;;;;5012897;28;20412;-53
2021/12/28 08:16:57;;;;;;;4.17;0.60;;;9.50;99.90;;;;;;5011006;28;20890;-53
2021/12/28 08:19:22;;;;;;;4.07;0.70;;;9.60;99.90;;;;;;5010060;28;20396;-53
2021/12/28 08:21:48;;;;;;;3.60;0.50;;;9.50;99.90;;;;;;5009784;28;20404;-52
2021/12/28 08:24:14;;;;;;;3.47;0.60;;;9.50;99.90;;;;;;5008319;28;20868;-52
2021/12/28 08:26:40;;;;;;;3.10;0.50;;;9.50;99.90;;;;;;5010525;28;20401;-52
2021/12/28 08:29:05;;;;;;;4.20;0.60;;;9.60;99.90;;;;;;5009450;28;20411;-53
2021/12/28 08:31:33;;;;;;;3.40;0.60;;;9.40;99.90;;;;;;5010263;28;20447;-53
2021/12/28 08:33:59;;;;;;;3.10;0.50;;;9.60;99.90;;;;;;5010684;28;20399;-52
2021/12/28 08:36:25;;;;;;;3.20;0.50;;;9.50;99.90;;;;;;5009850;28;20444;-52
2021/12/28 08:38:50;;;;;;;3.00;0.40;;;9.50;99.90;;;;;;5010350;28;20424;-55
2021/12/28 08:41:17;;;;;;;7.30;1.20;;;9.50;99.90;;;;;;5009468;28;20388;-56
2021/12/28 08:43:44;;;;;;;4.50;0.70;;;9.50;99.90;;;;;;5010519;28;20388;-53
2021/12/28 08:46:10;;;;;;;3.90;0.60;;;9.50;99.90;;;;;;5009221;28;20483;-53
2021/12/28 08:48:35;;;;;;;3.10;0.60;;;9.50;99.90;;;;;;5007263;28;20465;-52
2021/12/28 08:51:01;;;;;;;3.10;0.53;;;9.50;99.90;;;;;;4999963;28;20462;-54
2021/12/28 08:53:27;;;;;;;3.72;0.70;;;9.50;99.90;;;;;;4992157;28;20402;-52
2021/12/28 08:55:53;;;;;;;4.43;0.60;;;9.50;99.90;;;;;;5001721;28;20709;-52
2021/12/28 08:58:19;;;;;;;3.10;0.40;;;9.50;99.90;;;;;;4994374;28;20397;-52
2021/12/28 09:00:44;;;;;;;4.30;0.60;;;9.60;99.90;;;;;;4992771;28;20449;-52
2021/12/28 09:03:10;;;;;;;3.20;0.60;;;9.70;99.90;;;;;;4994275;28;20408;-52
2021/12/28 09:05:39;;;;;;;3.05;0.40;;;9.70;99.90;;;;;;4995002;28;20413;-52
2021/12/28 09:08:09;;;;;;;3.70;0.60;;;9.70;99.90;;;;;;4994523;28;20487;-53
2021/12/28 09:10:35;;;;;;;3.40;0.50;;;9.80;99.90;;;;;;4996184;28;20426;-53
2021/12/28 09:13:02;;;;;;;3.60;0.50;;;9.80;99.90;;;;;;5004087;28;20994;-53
2021/12/28 09:15:28;;;;;;;3.30;0.40;;;9.80;99.90;;;;;;5003039;28;20404;-53
2021/12/28 09:17:54;;;;;;;3.13;0.50;;;9.80;99.90;;;;;;5010117;28;20396;-52
2021/12/28 09:20:22;;;;;;;2.90;0.40;;;9.80;99.90;;;;;;5007356;28;20408;-52
2021/12/28 09:22:47;;;;;;;3.90;0.40;;;9.90;99.90;;;;;;4994498;28;20899;-52
2021/12/28 09:25:16;;;;;;;3.20;0.50;;;9.90;99.90;;;;;;5000652;28;20392;-52
2021/12/28 09:27:43;;;;;;;3.10;0.30;;;10.00;99.90;;;;;;4993621;28;20413;-53
2021/12/28 09:30:09;;;;;;;3.10;0.40;;;10.00;99.90;;;;;;5003341;28;20435;-53
2021/12/28 09:32:35;;;;;;;2.92;0.32;;;10.00;99.90;;;;;;5007766;28;20389;-53
2021/12/28 09:35:01;;;;;;;5.55;2.60;;;10.10;99.90;;;;;;5009851;28;20811;-52
2021/12/28 09:37:26;;;;;;;5.60;2.10;;;10.20;99.90;;;;;;4994758;28;20425;-53
2021/12/28 09:39:53;;;;;;;3.92;1.50;;;10.30;99.90;;;;;;4992808;28;21306;-53
2021/12/28 09:42:19;;;;;;;7.65;2.90;;;10.20;99.90;;;;;;4997132;28;20511;-53
2021/12/28 09:44:49;;;;;;;4.03;1.20;;;10.20;99.90;;;;;;4990158;28;20895;-51
2021/12/28 09:47:17;;;;;;;3.60;0.93;;;10.30;99.90;;;;;;4993867;28;20424;-53
2021/12/28 09:49:43;;;;;;;4.33;1.40;;;10.30;99.90;;;;;;5005755;28;20492;-51
2021/12/28 09:52:10;;;;;;;3.40;0.90;;;10.20;99.90;;;;;;5002016;28;20396;-51
2021/12/28 09:54:36;;;;;;;3.70;0.60;;;10.20;99.90;;;;;;5000096;28;20900;-53
2021/12/28 09:57:03;;;;;;;3.50;0.70;;;10.20;99.90;;;;;;4992916;28;20422;-54
2021/12/28 09:59:29;;;;;;;4.60;1.42;;;10.20;99.90;;;;;;4994146;28;20928;-52
2021/12/28 10:01:58;;;;;;;4.40;1.50;;;10.20;99.90;;;;;;4995770;28;20418;-51
2021/12/28 10:04:24;;;;;;;4.80;2.10;;;10.30;99.90;;;;;;4990906;28;20390;-51
2021/12/28 10:06:49;;;;;;;4.10;1.10;;;10.30;99.90;;;;;;5000559;28;20392;-51
2021/12/28 10:09:21;;;;;;;3.70;1.25;;;10.30;99.90;;;;;;5001015;28;20396;-51
2021/12/28 10:11:53;;;;;;;4.30;1.40;;;10.30;99.90;;;;;;4997915;28;20394;-50
2021/12/28 10:14:23;;;;;;;3.80;1.05;;;10.50;99.90;;;;;;4996675;28;20392;-53
2021/12/28 10:17:00;;;;;;;4.30;1.90;;;10.60;99.90;;;;;;4989798;28;20465;-55
2021/12/28 10:19:44;;;;;;;3.50;1.10;;;10.40;99.90;;;;;;4993295;28;20425;-54
2021/12/28 10:22:22;;;;;;;4.10;1.50;;;10.60;99.90;;;;;;4992997;28;20408;-54
2021/12/28 10:25:00;;;;;;;3.60;1.00;;;10.80;99.90;;;;;;4991212;28;20402;-54
2021/12/28 10:27:28;;;;;;;4.17;1.50;;;11.00;99.90;;;;;;4990425;28;20411;-54
2021/12/28 10:29:59;;;;;;;5.78;2.40;;;11.20;99.90;;;;;;4989936;28;20410;-54
2021/12/28 10:32:28;;;;;;;5.82;1.40;;;11.60;99.90;;;;;;4997074;28;20410;-54
2021/12/28 10:34:59;;;;;;;3.40;0.83;;;11.80;99.90;;;;;;4994372;28;20472;-54
2021/12/28 10:37:31;;;;;;;3.70;0.80;;;12.70;99.90;;;;;;4998150;28;20424;-54
2021/12/28 10:39:59;;;;;;;3.20;0.50;;;11.40;99.90;;;;;;4992424;28;20398;-54
2021/12/28 10:42:45;;;;;;;3.90;1.10;;;11.50;99.90;;;;;;4996875;28;20885;-54
2021/12/28 10:45:36;;;;;;;4.10;0.70;;;11.50;99.90;;;;;;4991727;28;20389;-54
2021/12/28 10:48:23;;;;;;;4.22;0.75;;;11.50;99.90;;;;;;4996871;28;20501;-54
2021/12/28 10:50:54;;;;;;;3.30;0.60;;;11.80;99.90;;;;;;5008952;28;20392;-54
2021/12/28 10:53:33;;;;;;;3.30;0.77;;;11.90;99.90;;;;;;5009849;28;21187;-54
2021/12/28 10:56:00;;;;;;;3.20;0.57;;;12.00;99.90;;;;;;4999030;28;20426;-54
2021/12/28 10:58:39;;;;;;;3.95;0.80;;;12.10;99.90;;;;;;5009787;28;20466;-54
2021/12/28 11:01:17;;;;;;;4.70;1.85;;;12.20;99.90;;;;;;5006550;28;20405;-53
2021/12/28 11:03:49;;;;;;;4.07;1.30;;;12.20;99.90;;;;;;5012667;28;20393;-53
2021/12/28 11:06:32;;;;;;;3.63;1.23;;;12.20;99.90;;;;;;5005651;28;20408;-53
2021/12/28 11:09:17;;;;;;;4.80;2.15;;;11.90;99.90;;;;;;5006035;28;20405;-53
2021/12/28 11:11:43;;;;;;;3.60;0.80;;;11.90;99.90;;;;;;5010455;28;20431;-53
2021/12/28 11:14:16;;;;;;;4.30;2.00;;;12.00;99.90;;;;;;5011305;28;20380;-53
2021/12/28 11:16:52;;;;;;;4.07;0.95;;;12.30;99.90;;;;;;5012260;28;20404;-53
2021/12/28 11:19:29;;;;;;;3.75;0.90;;;12.50;99.90;;;;;;5007329;28;20443;-53
2021/12/28 11:22:06;;;;;;;4.75;1.83;;;13.00;99.90;;;;;;4998885;28;20426;-54
2021/12/28 11:24:42;;;;;;;3.97;1.30;;;12.80;99.90;;;;;;4997794;28;20398;-54
2021/12/28 11:27:10;;;;;;;3.70;0.80;;;12.60;99.90;;;;;;4996770;28;20499;-53
2021/12/28 11:29:38;;;;;;;4.00;1.10;;;12.40;99.90;;;;;;4995767;28;20460;-53
2021/12/28 11:32:16;;;;;;;3.30;0.80;;;12.40;99.90;;;;;;5002875;28;20427;-53
2021/12/28 11:34:42;;;;;;;3.83;1.05;;;12.40;99.90;;;;;;5000775;28;20417;-54
2021/12/28 11:37:18;;;;;;;4.18;1.00;;;12.50;99.90;;;;;;5006854;28;20520;-52
2021/12/28 11:39:48;;;;;;;6.25;1.30;;;12.40;99.90;;;;;;5005906;28;20412;-52
2021/12/28 11:42:16;;;;;;;5.53;1.40;;;12.50;99.90;;;;;;4992382;28;20506;-52
2021/12/28 11:44:42;;;;;;;5.70;1.50;;;12.80;99.90;;;;;;4999882;28;20418;-52
2021/12/28 11:47:13;;;;;;;3.42;0.70;;;13.00;99.90;;;;;;5006015;28;20759;-51
2021/12/28 11:49:41;;;;;;;4.05;1.50;;;12.70;99.90;;;;;;4997432;28;20425;-51
2021/12/28 11:52:11;;;;;;;4.37;0.80;;;12.60;99.90;;;;;;4995362;28;20418;-51
2021/12/28 11:54:40;;;;;;;4.00;0.80;;;12.50;99.90;;;;;;4993473;28;20500;-51
2021/12/28 11:57:17;;;;;;;3.80;0.90;;;12.60;99.90;;;;;;4996871;28;20418;-52
2021/12/28 11:59:55;;;;;;;3.70;1.15;;;12.60;99.90;;;;;;4995719;28;20470;-54
2021/12/28 12:02:38;;;;;;;4.15;1.67;;;12.50;99.90;;;;;;4993207;28;20460;-53
2021/12/28 12:05:18;;;;;;;3.80;1.33;;;12.40;99.90;;;;;;4998832;28;20416;-53
2021/12/28 12:07:44;;;;;;;4.03;0.93;;;12.30;99.90;;;;;;5005781;28;20401;-54
2021/12/28 12:10:13;;;;;;;6.13;4.07;;;12.20;99.90;;;;;;5005559;28;20436;-53
2021/12/28 12:12:55;;;;;;;5.82;2.05;;;12.20;99.90;;;;;;5004608;28;20408;-53
2021/12/28 12:15:33;;;;;;;3.13;0.60;;;12.20;99.90;;;;;;4997025;28;20409;-53
2021/12/28 12:18:00;;;;;;;4.20;1.25;;;12.00;99.90;;;;;;4999068;28;20495;-57
2021/12/28 12:20:33;;;;;;;3.78;0.80;;;12.10;99.90;;;;;;4997905;28;20394;-54
2021/12/28 12:23:04;;;;;;;3.67;0.80;;;12.20;99.90;;;;;;5008747;28;20691;-54
2021/12/28 12:25:42;;;;;;;3.80;0.60;;;12.30;99.90;;;;;;5005132;28;20412;-54
2021/12/28 12:28:10;;;;;;;4.60;0.60;;;12.40;99.90;;;;;;4992388;28;20819;-54
2021/12/28 12:30:54;;;;;;;3.40;0.70;;;12.50;99.90;;;;;;5008594;28;20760;-53
2021/12/28 12:33:20;;;;;;;4.25;0.60;;;12.60;99.90;;;;;;5009920;28;20488;-54
2021/12/28 12:35:49;;;;;;;4.38;1.27;;;12.70;99.90;;;;;;4993289;28;20438;-54
2021/12/28 12:38:14;;;;;;;3.50;0.80;;;12.60;99.90;;;;;;5005383;28;20393;-54
2021/12/28 12:40:53;;;;;;;3.70;0.70;;;12.50;99.90;;;;;;4996186;28;20787;-54
2021/12/28 12:43:20;;;;;;;3.40;0.65;;;12.20;99.90;;;;;;4994207;28;20461;-54
2021/12/28 12:45:56;;;;;;;3.80;1.15;;;12.10;99.90;;;;;;4993757;28;21042;-54
2021/12/28 12:48:36;;;;;;;3.42;0.85;;;12.10;99.90;;;;;;5000361;28;20452;-54
2021/12/28 12:51:20;;;;;;;3.50;0.80;;;12.20;99.90;;;;;;4999667;28;20408;-53
2021/12/28 12:53:54;;;;;;;3.90;0.80;;;12.20;99.90;;;;;;4998406;28;20773;-54
2021/12/28 12:56:32;;;;;;;3.78;0.80;;;12.10;99.90;;;;;;4995450;28;20413;-54
2021/12/28 12:59:01;;;;;;;3.40;0.90;;;12.20;99.90;;;;;;4999032;28;20424;-54